Time;durP1;ratioP1;P1;durP2;ratioP2;P2;SDS_P1;SDS_P2;PMS_P1;PMS_P2;Temp;Humidity;BMP_temperature;BMP_pressure;BME280_temperature;BME280_humidity;BME280_pressure;Samples;Min_cycle;Max_cycle;Signal;HPM_P1;HPM_P2
2023/09/06 00:01:39;;;;;;;6.20;3.63;;;18.00;99.90;;;;;;5081867;28;20040;-76
2023/09/06 00:04:06;;;;;;;6.63;3.42;;;18.00;99.90;;;;;;5058975;28;20130;-76
2023/09/06 00:06:34;;;;;;;7.95;3.65;;;17.90;99.90;;;;;;5066127;28;20048;-76
2023/09/06 00:09:02;;;;;;;5.05;3.33;;;17.90;99.90;;;;;;5053106;28;20044;-76
2023/09/06 00:11:29;;;;;;;3.78;2.55;;;17.90;99.90;;;;;;5064835;28;20040;-76
2023/09/06 00:13:57;;;;;;;6.95;2.95;;;17.90;99.90;;;;;;5062156;28;20052;-76
2023/09/06 00:16:24;;;;;;;5.00;2.90;;;17.80;99.90;;;;;;5055980;28;20036;-76
2023/09/06 00:18:51;;;;;;;5.65;2.72;;;17.80;99.90;;;;;;5079119;28;20039;-76
2023/09/06 00:21:19;;;;;;;5.55;3.60;;;17.70;99.90;;;;;;5068562;28;20040;-76
2023/09/06 00:23:46;;;;;;;5.43;2.67;;;17.70;99.90;;;;;;5069442;28;20051;-76
2023/09/06 00:26:13;;;;;;;5.10;2.75;;;17.70;99.90;;;;;;5057261;28;20147;-76
2023/09/06 00:28:41;;;;;;;6.90;3.28;;;17.70;99.90;;;;;;5067522;28;20048;-76
2023/09/06 00:31:08;;;;;;;4.32;2.75;;;17.70;99.90;;;;;;5074456;28;20068;-76
2023/09/06 00:33:35;;;;;;;5.85;3.88;;;17.60;99.90;;;;;;5059393;28;20048;-76
2023/09/06 00:36:06;;;;;;;6.43;3.80;;;17.60;99.90;;;;;;5079135;28;20040;-76
2023/09/06 00:38:34;;;;;;;6.72;4.40;;;17.60;99.90;;;;;;5056826;28;20131;-76
2023/09/06 00:41:02;;;;;;;7.10;4.60;;;17.60;99.90;;;;;;5054278;28;20040;-76
2023/09/06 00:43:29;;;;;;;10.00;5.38;;;17.50;99.90;;;;;;5078218;28;20049;-76
2023/09/06 00:45:57;;;;;;;7.63;4.95;;;17.50;99.90;;;;;;5060484;28;20044;-76
2023/09/06 00:48:26;;;;;;;7.75;4.28;;;17.50;99.90;;;;;;5065672;28;20052;-76
2023/09/06 00:50:55;;;;;;;8.18;5.07;;;17.50;99.90;;;;;;5065915;28;20040;-76
2023/09/06 00:53:25;;;;;;;7.38;4.50;;;17.40;99.90;;;;;;5074640;28;20044;-76
2023/09/06 00:55:52;;;;;;;9.68;4.88;;;17.40;99.90;;;;;;5068636;28;20402;-76
2023/09/06 00:58:20;;;;;;;7.95;5.22;;;17.40;99.90;;;;;;5054451;28;20054;-76
2023/09/06 01:00:49;;;;;;;9.98;5.68;;;17.30;99.90;;;;;;5046483;28;20055;-76
2023/09/06 01:03:17;;;;;;;12.07;6.45;;;17.30;99.90;;;;;;5075385;28;20044;-76
2023/09/06 01:05:58;;;;;;;8.25;5.60;;;17.30;99.90;;;;;;5076407;28;20059;-76
2023/09/06 01:08:37;;;;;;;12.77;6.28;;;17.30;99.90;;;;;;5062296;28;20040;-76
2023/09/06 01:11:19;;;;;;;10.35;6.80;;;17.20;99.90;;;;;;5067112;28;20403;-76
2023/09/06 01:13:48;;;;;;;9.55;5.75;;;17.20;99.90;;;;;;5059471;28;20498;-76
2023/09/06 01:16:26;;;;;;;8.70;5.57;;;17.20;99.90;;;;;;5048551;28;20082;-76
2023/09/06 01:18:54;;;;;;;8.88;4.90;;;17.20;99.90;;;;;;5075888;28;20119;-76
2023/09/06 01:21:29;;;;;;;8.15;5.55;;;17.20;99.90;;;;;;5046723;28;20047;-76
2023/09/06 01:23:59;;;;;;;10.50;5.10;;;17.20;99.90;;;;;;5064240;28;20064;-76
2023/09/06 01:26:27;;;;;;;8.30;4.47;;;17.20;99.90;;;;;;5063267;28;20056;-76
2023/09/06 01:28:55;;;;;;;11.60;5.22;;;17.10;99.90;;;;;;5066051;28;20052;-76
2023/09/06 01:31:22;;;;;;;6.75;4.45;;;17.20;99.90;;;;;;5062159;28;22817;-77
2023/09/06 01:33:50;;;;;;;8.73;4.97;;;17.20;99.90;;;;;;5075588;28;20062;-76
2023/09/06 01:36:17;;;;;;;7.07;4.43;;;17.10;99.90;;;;;;5059738;28;20110;-77
2023/09/06 01:38:44;;;;;;;7.75;3.88;;;17.10;99.90;;;;;;5048957;28;20483;-77
2023/09/06 01:41:12;;;;;;;6.00;3.90;;;17.10;99.90;;;;;;5081339;28;20066;-76
2023/09/06 01:43:39;;;;;;;7.70;4.00;;;17.10;99.90;;;;;;5054969;28;20044;-76
2023/09/06 01:46:07;;;;;;;7.78;3.80;;;17.00;99.90;;;;;;5063319;28;20045;-76
2023/09/06 01:48:36;;;;;;;6.95;4.13;;;17.00;99.90;;;;;;5067436;28;20138;-76
2023/09/06 01:51:04;;;;;;;10.07;4.40;;;17.00;99.90;;;;;;5059705;28;20110;-76
2023/09/06 01:53:31;;;;;;;6.70;3.70;;;17.00;99.90;;;;;;5064770;28;20135;-76
2023/09/06 01:55:58;;;;;;;5.28;3.13;;;17.00;99.90;;;;;;5064306;28;20052;-76
2023/09/06 01:58:25;;;;;;;6.53;3.45;;;17.00;99.90;;;;;;5050899;28;20874;-76
2023/09/06 02:00:53;;;;;;;4.47;2.58;;;17.00;99.90;;;;;;5059813;28;20070;-76
2023/09/06 02:03:20;;;;;;;6.28;2.78;;;17.00;99.90;;;;;;5047672;28;20121;-76
2023/09/06 02:05:49;;;;;;;4.88;2.78;;;17.00;99.90;;;;;;5067438;28;20482;-76
2023/09/06 02:08:16;;;;;;;4.85;3.00;;;17.00;99.90;;;;;;5062029;28;20138;-76
2023/09/06 02:10:43;;;;;;;5.75;3.05;;;17.00;99.90;;;;;;5068002;28;20044;-76
2023/09/06 02:13:12;;;;;;;4.88;2.58;;;17.00;99.90;;;;;;5052351;28;20398;-76
2023/09/06 02:15:41;;;;;;;5.53;2.78;;;17.00;99.90;;;;;;5065175;28;20044;-76
2023/09/06 02:18:09;;;;;;;5.65;2.83;;;17.00;99.90;;;;;;5048987;28;20040;-76
2023/09/06 02:20:39;;;;;;;6.32;3.35;;;16.90;99.90;;;;;;5064946;28;20090;-76
2023/09/06 02:23:08;;;;;;;4.22;2.30;;;17.00;99.90;;;;;;5064588;28;20040;-76
2023/09/06 02:25:35;;;;;;;4.30;2.58;;;17.00;99.90;;;;;;5063363;28;20513;-76
2023/09/06 02:28:06;;;;;;;5.95;2.95;;;17.00;99.90;;;;;;5077014;28;20075;-76
2023/09/06 02:30:38;;;;;;;6.93;2.90;;;16.90;99.90;;;;;;5079804;28;20445;-76
2023/09/06 02:33:08;;;;;;;;;;;16.90;99.90;;;;;;5052798;28;20044;-76
2023/09/06 02:35:35;;;;;;;5.00;2.70;;;16.90;99.90;;;;;;5078878;28;19982;-76
2023/09/06 02:38:02;;;;;;;5.40;3.00;;;16.90;99.90;;;;;;5064766;28;20032;-76
2023/09/06 02:40:30;;;;;;;5.07;2.42;;;16.80;99.90;;;;;;5063534;28;21471;-76
2023/09/06 02:42:57;;;;;;;4.40;2.88;;;16.80;99.90;;;;;;5077293;28;20051;-76
2023/09/06 02:45:36;;;;;;;3.97;2.63;;;16.70;99.90;;;;;;5067266;28;20040;-76
2023/09/06 02:48:12;;;;;;;4.70;3.13;;;16.70;99.90;;;;;;5074692;28;20135;-76
2023/09/06 02:50:44;;;;;;;6.30;2.90;;;16.70;99.90;;;;;;5059745;28;20048;-76
2023/09/06 02:53:19;;;;;;;4.35;2.88;;;16.60;99.90;;;;;;5064972;28;20135;-76
2023/09/06 02:55:51;;;;;;;4.25;2.35;;;16.60;99.90;;;;;;5065470;28;20040;-76
2023/09/06 02:58:23;;;;;;;4.43;2.90;;;16.60;99.90;;;;;;5059656;28;20044;-76
2023/09/06 03:00:57;;;;;;;5.65;3.03;;;16.60;99.90;;;;;;5055953;28;20047;-76
2023/09/06 03:03:26;;;;;;;3.75;2.50;;;16.60;99.90;;;;;;5043784;28;20056;-76
2023/09/06 03:06:03;;;;;;;5.68;2.90;;;16.60;99.90;;;;;;5058497;28;20411;-76
2023/09/06 03:08:31;;;;;;;4.95;2.67;;;16.60;99.90;;;;;;5077013;28;20121;-76
2023/09/06 03:10:58;;;;;;;5.18;2.47;;;16.60;99.90;;;;;;5066803;28;20403;-76
2023/09/06 03:13:29;;;;;;;4.00;2.45;;;16.60;99.90;;;;;;5053995;28;20503;-76
2023/09/06 03:15:59;;;;;;;5.38;3.25;;;16.60;99.90;;;;;;5077604;28;20045;-76
2023/09/06 03:18:28;;;;;;;5.70;2.78;;;16.60;99.90;;;;;;5079431;28;20047;-76
2023/09/06 03:20:56;;;;;;;3.92;2.20;;;16.50;99.90;;;;;;5066860;28;20068;-76
2023/09/06 03:23:25;;;;;;;4.97;2.70;;;16.50;99.90;;;;;;5069732;28;20923;-76
2023/09/06 03:25:55;;;;;;;5.70;2.90;;;16.50;99.90;;;;;;5069755;28;20048;-76
2023/09/06 03:28:28;;;;;;;5.82;2.78;;;16.40;99.90;;;;;;5065422;28;20152;-76
2023/09/06 03:30:58;;;;;;;5.40;2.65;;;16.40;99.90;;;;;;5070055;28;23094;-76
2023/09/06 03:33:27;;;;;;;4.20;2.47;;;16.40;99.90;;;;;;5069653;28;22828;-76
2023/09/06 03:35:56;;;;;;;5.25;2.85;;;16.30;99.90;;;;;;5065386;28;20083;-76
2023/09/06 03:38:25;;;;;;;5.63;2.20;;;16.40;99.90;;;;;;5064960;28;20066;-76
2023/09/06 03:40:55;;;;;;;3.85;2.50;;;16.30;99.90;;;;;;5057520;28;20055;-76
2023/09/06 03:43:30;;;;;;;5.32;2.33;;;16.40;99.90;;;;;;5046737;28;20139;-76
2023/09/06 03:46:04;;;;;;;6.13;2.72;;;16.40;99.90;;;;;;5044484;28;20976;-76
2023/09/06 03:48:34;;;;;;;4.45;2.60;;;16.40;99.90;;;;;;5066938;28;20059;-76
2023/09/06 03:51:03;;;;;;;5.00;2.70;;;16.40;99.90;;;;;;5071251;28;20498;-76
2023/09/06 03:53:32;;;;;;;6.05;2.58;;;16.30;99.90;;;;;;5078021;28;22766;-76
2023/09/06 03:56:00;;;;;;;6.28;3.03;;;16.20;99.90;;;;;;5062502;28;20460;-76
2023/09/06 03:58:48;;;;;;;5.55;2.80;;;16.30;99.90;;;;;;5076448;28;20055;-76
2023/09/06 04:01:16;;;;;;;5.70;2.63;;;16.30;99.90;;;;;;5062641;28;20044;-76
2023/09/06 04:03:50;;;;;;;7.65;2.78;;;16.30;99.90;;;;;;5066221;28;20407;-77
2023/09/06 04:06:19;;;;;;;4.82;2.90;;;16.30;99.90;;;;;;5046630;28;20141;-76
2023/09/06 04:08:46;;;;;;;5.60;2.67;;;16.30;99.90;;;;;;5064441;28;20032;-76
2023/09/06 04:11:13;;;;;;;3.85;2.25;;;16.40;99.90;;;;;;5061539;28;20044;-76
2023/09/06 04:13:43;;;;;;;5.68;2.60;;;16.30;99.90;;;;;;5055184;28;20407;-76
2023/09/06 04:16:13;;;;;;;6.43;3.17;;;16.30;99.90;;;;;;5074321;28;20044;-75
2023/09/06 04:18:42;;;;;;;5.55;2.88;;;16.30;99.90;;;;;;5047966;28;20040;-77
2023/09/06 04:21:10;;;;;;;3.92;2.13;;;16.30;99.90;;;;;;5045403;28;20041;-76
2023/09/06 04:23:40;;;;;;;4.72;2.78;;;16.20;99.90;;;;;;5042036;28;20511;-76
2023/09/06 04:26:10;;;;;;;4.32;2.65;;;16.30;99.90;;;;;;5062445;28;20060;-76
2023/09/06 04:28:38;;;;;;;4.97;2.63;;;16.30;99.90;;;;;;5062411;28;20460;-76
2023/09/06 04:31:09;;;;;;;5.03;2.55;;;16.30;99.90;;;;;;5066037;28;20048;-76
2023/09/06 04:33:41;;;;;;;4.85;2.60;;;16.40;99.90;;;;;;5052852;28;21069;-76
2023/09/06 04:36:26;;;;;;;5.50;3.40;;;16.40;99.90;;;;;;5070395;28;20074;-76
2023/09/06 04:39:01;;;;;;;7.82;2.70;;;16.30;99.90;;;;;;5060721;28;20049;-76
2023/09/06 04:41:31;;;;;;;4.63;2.45;;;16.30;99.90;;;;;;5062906;28;20494;-77
2023/09/06 04:44:04;;;;;;;6.68;3.08;;;16.40;99.90;;;;;;5053160;28;20045;-76
2023/09/06 04:46:31;;;;;;;5.78;2.45;;;16.40;99.90;;;;;;5053036;28;20044;-77
2023/09/06 04:48:59;;;;;;;6.13;2.60;;;16.40;99.90;;;;;;5062979;28;23641;-76
2023/09/06 04:51:27;;;;;;;6.63;2.75;;;16.30;99.90;;;;;;5060465;28;20510;-76
2023/09/06 04:53:57;;;;;;;7.57;3.00;;;16.40;99.90;;;;;;5044291;28;20093;-76
2023/09/06 04:56:31;;;;;;;8.23;3.20;;;16.40;99.90;;;;;;5069152;28;20048;-76
2023/09/06 04:58:59;;;;;;;6.13;2.92;;;16.30;99.90;;;;;;5067604;28;20139;-76
2023/09/06 05:01:26;;;;;;;5.78;3.08;;;16.40;99.90;;;;;;5075173;28;20058;-76
2023/09/06 05:03:55;;;;;;;4.85;3.05;;;16.40;99.90;;;;;;5073563;28;20047;-78
2023/09/06 05:06:23;;;;;;;7.05;3.25;;;16.40;99.90;;;;;;5048022;28;20048;-78
2023/09/06 05:08:50;;;;;;;6.25;3.15;;;16.50;99.90;;;;;;5048693;28;20065;-78
2023/09/06 05:11:21;;;;;;;4.68;2.72;;;16.40;99.90;;;;;;5045288;28;20418;-77
2023/09/06 05:13:50;;;;;;;5.60;3.30;;;16.30;99.90;;;;;;5048984;28;20044;-78
2023/09/06 05:16:18;;;;;;;7.40;3.33;;;16.30;99.90;;;;;;5063697;28;20048;-78
2023/09/06 05:18:46;;;;;;;7.88;3.65;;;16.40;99.90;;;;;;5075117;28;20098;-77
2023/09/06 05:21:19;;;;;;;5.72;3.20;;;16.50;99.90;;;;;;5062798;28;20048;-79
2023/09/06 05:23:47;;;;;;;5.82;3.72;;;16.50;99.90;;;;;;5066907;28;20049;-78
2023/09/06 05:26:15;;;;;;;6.25;3.38;;;16.60;99.90;;;;;;5080578;28;20047;-78
2023/09/06 05:28:44;;;;;;;6.28;3.25;;;16.60;99.90;;;;;;5048661;28;20046;-78
2023/09/06 05:31:12;;;;;;;5.07;3.03;;;16.70;99.90;;;;;;5075566;28;22803;-78
2023/09/06 05:33:43;;;;;;;4.20;2.75;;;16.80;99.90;;;;;;5048523;28;22683;-78
2023/09/06 05:36:13;;;;;;;6.57;2.95;;;16.70;99.90;;;;;;5061079;28;20046;-78
2023/09/06 05:38:41;;;;;;;5.63;2.92;;;16.90;99.90;;;;;;5051521;28;21254;-78
2023/09/06 05:41:10;;;;;;;7.50;2.70;;;16.90;99.90;;;;;;5063117;28;20071;-78
2023/09/06 05:43:41;;;;;;;8.07;2.78;;;17.00;99.90;;;;;;5079255;28;20067;-78
2023/09/06 05:46:08;;;;;;;5.15;2.88;;;17.00;99.90;;;;;;5073540;28;20037;-78
2023/09/06 05:48:57;;;;;;;3.75;2.22;;;17.10;99.90;;;;;;5056647;28;20130;-78
2023/09/06 05:51:27;;;;;;;5.03;2.55;;;17.10;99.90;;;;;;5050566;28;20072;-78
2023/09/06 05:53:54;;;;;;;4.75;2.30;;;17.20;99.90;;;;;;5066789;28;20130;-78
2023/09/06 05:56:22;;;;;;;4.10;2.40;;;17.30;99.90;;;;;;5050984;28;20130;-79
2023/09/06 05:58:50;;;;;;;3.65;2.45;;;17.40;99.90;;;;;;5049592;28;20534;-78
2023/09/06 06:01:17;;;;;;;3.50;1.80;;;17.40;99.90;;;;;;5064995;28;20051;-78
2023/09/06 06:03:45;;;;;;;3.10;2.33;;;17.60;99.90;;;;;;5040252;28;20041;-78
2023/09/06 06:06:16;;;;;;;5.07;2.30;;;17.60;99.90;;;;;;5058100;28;20052;-78
2023/09/06 06:08:43;;;;;;;5.40;2.55;;;17.80;99.90;;;;;;5061051;28;20052;-78
2023/09/06 06:11:11;;;;;;;4.20;2.10;;;17.90;99.90;;;;;;5044092;28;20052;-77
2023/09/06 06:13:38;;;;;;;5.68;2.10;;;18.00;99.90;;;;;;5046750;28;20059;-78
2023/09/06 06:16:06;;;;;;;4.55;1.77;;;18.10;99.90;;;;;;5054591;28;20139;-77
2023/09/06 06:18:34;;;;;;;6.35;2.30;;;18.30;99.30;;;;;;5063593;28;20039;-78
2023/09/06 06:21:03;;;;;;;4.88;2.17;;;18.40;98.60;;;;;;5043234;28;20040;-78
2023/09/06 06:23:31;;;;;;;4.47;1.98;;;18.60;98.70;;;;;;5063004;28;20036;-78
2023/09/06 06:25:58;;;;;;;4.32;2.30;;;18.70;98.20;;;;;;5076240;28;20055;-78
2023/09/06 06:28:25;;;;;;;8.07;2.13;;;18.80;97.80;;;;;;5073946;28;20394;-77
2023/09/06 06:30:53;;;;;;;4.55;2.33;;;19.00;96.90;;;;;;5063367;28;20155;-77
2023/09/06 06:33:20;;;;;;;3.97;1.30;;;19.10;96.00;;;;;;5058131;28;20052;-77
2023/09/06 06:35:47;;;;;;;4.05;1.40;;;19.20;94.90;;;;;;5064136;28;20499;-80
2023/09/06 06:38:14;;;;;;;3.42;1.50;;;18.90;94.70;;;;;;5047046;28;20110;-78
2023/09/06 06:40:42;;;;;;;3.70;1.63;;;19.40;94.40;;;;;;5055674;28;20051;-78
2023/09/06 06:43:09;;;;;;;4.43;1.92;;;19.50;93.90;;;;;;5078014;28;20076;-78
2023/09/06 06:45:36;;;;;;;3.40;1.55;;;19.70;94.10;;;;;;5044541;28;20047;-77
2023/09/06 06:48:04;;;;;;;3.28;1.30;;;19.70;93.00;;;;;;5064596;28;20058;-78
2023/09/06 06:50:32;;;;;;;4.60;1.50;;;19.80;92.40;;;;;;5058370;28;20052;-78
2023/09/06 06:52:59;;;;;;;5.07;1.30;;;20.00;92.50;;;;;;5060912;28;20418;-78
2023/09/06 06:55:26;;;;;;;2.92;1.30;;;20.00;90.80;;;;;;5044891;28;20119;-78
2023/09/06 06:57:53;;;;;;;3.35;1.42;;;20.10;90.60;;;;;;5080463;28;20047;-78
2023/09/06 07:00:21;;;;;;;2.78;1.55;;;20.20;90.90;;;;;;5056378;28;20117;-78
2023/09/06 07:02:48;;;;;;;3.15;1.35;;;20.40;90.50;;;;;;5074696;28;20072;-78
2023/09/06 07:05:16;;;;;;;3.80;1.85;;;20.40;90.20;;;;;;5056933;28;20137;-77
2023/09/06 07:07:43;;;;;;;2.63;1.25;;;20.50;90.30;;;;;;5075623;28;20048;-77
2023/09/06 07:10:11;;;;;;;3.08;1.52;;;20.70;89.40;;;;;;5059614;28;20056;-77
2023/09/06 07:12:38;;;;;;;4.25;1.42;;;20.70;87.90;;;;;;5073381;28;20043;-77
2023/09/06 07:15:06;;;;;;;6.95;1.42;;;20.80;87.50;;;;;;5055175;28;20411;-77
2023/09/06 07:17:34;;;;;;;1.98;1.10;;;20.90;88.10;;;;;;5057776;28;20048;-78
2023/09/06 07:20:01;;;;;;;2.83;1.20;;;21.00;87.60;;;;;;5057104;28;20063;-78
2023/09/06 07:22:29;;;;;;;2.45;1.13;;;21.00;87.20;;;;;;5046327;28;20055;-78
2023/09/06 07:24:56;;;;;;;3.95;1.90;;;21.20;86.60;;;;;;5056558;28;20072;-77
2023/09/06 07:27:23;;;;;;;2.85;1.40;;;21.20;85.60;;;;;;5074040;28;20044;-78
2023/09/06 07:29:51;;;;;;;4.53;1.70;;;21.30;86.90;;;;;;5062706;28;20151;-78
2023/09/06 07:32:18;;;;;;;2.90;1.40;;;21.40;85.70;;;;;;5045278;28;20052;-78
2023/09/06 07:34:45;;;;;;;3.15;1.27;;;21.50;84.70;;;;;;5064662;28;20102;-79
2023/09/06 07:37:12;;;;;;;4.88;1.20;;;21.50;84.70;;;;;;5069765;28;20440;-77
2023/09/06 07:39:39;;;;;;;4.30;1.42;;;21.60;84.60;;;;;;5060755;28;20036;-78
2023/09/06 07:42:06;;;;;;;2.63;1.40;;;21.80;84.20;;;;;;5062350;28;20128;-78
2023/09/06 07:44:33;;;;;;;3.58;1.52;;;21.80;82.10;;;;;;5078913;28;20133;-79
2023/09/06 07:47:00;;;;;;;5.47;1.48;;;21.80;82.30;;;;;;5065413;28;20824;-77
2023/09/06 07:49:31;;;;;;;2.50;1.13;;;21.80;81.10;;;;;;5075787;28;21033;-79
2023/09/06 07:52:04;;;;;;;2.83;0.95;;;21.90;81.40;;;;;;5061541;28;20049;-78
2023/09/06 07:54:32;;;;;;;3.00;1.08;;;21.90;80.80;;;;;;5043489;28;20048;-79
2023/09/06 07:56:59;;;;;;;3.75;1.75;;;22.20;82.00;;;;;;5068847;28;20059;-79
2023/09/06 07:59:26;;;;;;;3.10;1.50;;;22.30;81.80;;;;;;5059522;28;20052;-77
2023/09/06 08:01:53;;;;;;;3.55;1.50;;;22.50;80.10;;;;;;5078467;28;20040;-80
2023/09/06 08:04:21;;;;;;;3.28;1.20;;;22.40;79.50;;;;;;5050063;28;20144;-78
2023/09/06 08:06:48;;;;;;;3.90;1.35;;;22.50;79.20;;;;;;5050190;28;20063;-78
2023/09/06 08:09:16;;;;;;;2.60;1.40;;;22.60;79.10;;;;;;5060794;28;20056;-78
2023/09/06 08:11:43;;;;;;;4.40;1.90;;;22.80;79.70;;;;;;5081394;28;20445;-78
2023/09/06 08:14:10;;;;;;;2.50;1.48;;;22.80;79.10;;;;;;5070388;28;20063;-79
2023/09/06 08:16:37;;;;;;;3.05;1.60;;;22.80;78.10;;;;;;5061260;28;20043;-79
2023/09/06 08:19:05;;;;;;;3.95;2.08;;;22.80;78.90;;;;;;5065829;28;20699;-78
2023/09/06 08:21:32;;;;;;;3.22;1.13;;;22.90;79.30;;;;;;5078302;28;20048;-79
2023/09/06 08:24:02;;;;;;;3.08;1.05;;;23.00;79.70;;;;;;5051425;28;20048;-78
2023/09/06 08:26:29;;;;;;;4.18;1.85;;;23.20;80.40;;;;;;5059666;28;20051;-79
2023/09/06 08:28:56;;;;;;;4.05;1.80;;;23.20;78.60;;;;;;5069752;28;20048;-79
2023/09/06 08:31:23;;;;;;;2.75;1.20;;;23.20;78.60;;;;;;5049640;28;20070;-79
2023/09/06 08:33:50;;;;;;;2.83;1.60;;;23.30;77.80;;;;;;5045835;28;20043;-78
2023/09/06 08:36:18;;;;;;;2.83;1.50;;;23.30;77.70;;;;;;5062774;28;20035;-78
2023/09/06 08:38:45;;;;;;;6.85;1.80;;;23.30;78.60;;;;;;5066217;28;20513;-79
2023/09/06 08:41:12;;;;;;;3.45;1.20;;;23.50;79.50;;;;;;5061987;28;20499;-79
2023/09/06 08:43:43;;;;;;;3.10;1.40;;;23.60;79.40;;;;;;5064635;28;20458;-78
2023/09/06 08:46:29;;;;;;;3.88;1.38;;;23.60;77.80;;;;;;5075284;28;20106;-79
2023/09/06 08:48:59;;;;;;;5.30;1.20;;;23.50;77.50;;;;;;5057924;28;20048;-79
2023/09/06 08:51:32;;;;;;;4.68;1.50;;;23.50;78.50;;;;;;5050819;28;20064;-78
2023/09/06 08:54:00;;;;;;;2.90;1.60;;;23.70;78.70;;;;;;5038881;28;20868;-78
2023/09/06 08:56:28;;;;;;;5.32;2.15;;;23.60;78.30;;;;;;5055410;28;20040;-78
2023/09/06 08:58:56;;;;;;;1.85;1.27;;;23.70;77.80;;;;;;5065639;28;20530;-78
2023/09/06 09:01:23;;;;;;;2.67;1.25;;;23.70;78.10;;;;;;5065413;28;20096;-78
2023/09/06 09:03:51;;;;;;;2.95;1.40;;;23.70;76.50;;;;;;5057484;28;20036;-78
2023/09/06 09:06:18;;;;;;;4.57;1.27;;;23.70;76.30;;;;;;5058686;28;20048;-77
2023/09/06 09:08:45;;;;;;;5.25;1.58;;;23.60;76.60;;;;;;5080140;28;20047;-79
2023/09/06 09:11:20;;;;;;;2.25;1.02;;;23.60;76.10;;;;;;5067557;28;20048;-79
2023/09/06 09:13:47;;;;;;;8.60;1.63;;;23.70;76.00;;;;;;5067716;28;20048;-79
2023/09/06 09:16:16;;;;;;;2.33;0.98;;;23.80;75.80;;;;;;5063444;28;20044;-79
2023/09/06 09:18:44;;;;;;;3.78;1.30;;;23.90;73.40;;;;;;5057969;28;20040;-79
2023/09/06 09:21:13;;;;;;;3.28;1.30;;;23.80;74.10;;;;;;5064743;28;20049;-79
2023/09/06 09:23:52;;;;;;;2.92;1.40;;;23.90;74.50;;;;;;5055015;28;20045;-78
2023/09/06 09:26:21;;;;;;;1.73;1.00;;;23.90;74.40;;;;;;5066467;28;20053;-79
2023/09/06 09:28:49;;;;;;;2.22;1.40;;;23.90;74.90;;;;;;5050888;28;20518;-78
2023/09/06 09:31:16;;;;;;;3.60;1.15;;;24.10;75.50;;;;;;5063011;28;20049;-79
2023/09/06 09:33:49;;;;;;;3.00;1.20;;;24.30;75.20;;;;;;5077412;28;20498;-79
2023/09/06 09:36:18;;;;;;;1.83;0.88;;;24.30;72.90;;;;;;5058139;28;20041;-78
2023/09/06 09:38:49;;;;;;;2.42;1.05;;;24.20;70.80;;;;;;5080471;28;20040;-79
2023/09/06 09:41:17;;;;;;;2.15;1.20;;;24.20;71.20;;;;;;5066605;28;20044;-79
2023/09/06 09:43:44;;;;;;;3.22;1.17;;;24.20;72.10;;;;;;5065712;28;22673;-80
2023/09/06 09:46:24;;;;;;;2.53;1.30;;;24.30;72.30;;;;;;5059911;28;21440;-79
2023/09/06 09:48:53;;;;;;;2.58;0.85;;;24.30;71.40;;;;;;5056548;28;20699;-79
2023/09/06 09:51:21;;;;;;;3.50;1.40;;;24.30;70.60;;;;;;5051920;28;20048;-78
2023/09/06 09:53:50;;;;;;;1.38;0.90;;;24.40;70.10;;;;;;5049580;28;20114;-78
2023/09/06 09:56:21;;;;;;;2.50;0.80;;;24.60;71.20;;;;;;5078743;28;20076;-80
2023/09/06 09:58:51;;;;;;;3.03;0.77;;;24.70;69.70;;;;;;5076099;28;20052;-79
2023/09/06 10:01:20;;;;;;;2.10;1.05;;;24.70;70.20;;;;;;5049372;28;20060;-79
2023/09/06 10:03:49;;;;;;;1.90;1.00;;;24.70;70.80;;;;;;5058439;28;20086;-80
2023/09/06 10:06:18;;;;;;;2.40;1.25;;;24.60;69.00;;;;;;5061252;28;20048;-79
2023/09/06 10:08:48;;;;;;;2.50;0.88;;;24.60;68.50;;;;;;5061163;28;20063;-79
2023/09/06 10:11:17;;;;;;;2.47;1.00;;;24.70;68.90;;;;;;5042313;28;22723;-79
2023/09/06 10:13:46;;;;;;;2.05;0.82;;;24.70;70.10;;;;;;5050114;28;20052;-79
2023/09/06 10:16:14;;;;;;;2.78;1.20;;;24.70;68.30;;;;;;5061714;28;20048;-79
2023/09/06 10:18:42;;;;;;;2.88;1.10;;;24.90;68.30;;;;;;5061002;28;20474;-78
2023/09/06 10:21:11;;;;;;;3.05;1.17;;;24.90;69.40;;;;;;5067706;28;20040;-78
2023/09/06 10:23:42;;;;;;;1.38;0.80;;;24.90;68.60;;;;;;5063224;28;20483;-79
2023/09/06 10:26:09;;;;;;;1.27;0.90;;;24.90;69.10;;;;;;5063279;28;20479;-77
2023/09/06 10:28:36;;;;;;;3.92;1.15;;;25.00;69.30;;;;;;5061608;28;20595;-79
2023/09/06 10:31:09;;;;;;;3.15;0.90;;;25.00;68.40;;;;;;5078011;28;20037;-80
2023/09/06 10:33:37;;;;;;;3.15;1.15;;;25.00;68.10;;;;;;5073429;28;20045;-77
2023/09/06 10:36:13;;;;;;;2.65;0.70;;;25.00;67.40;;;;;;5058892;28;20047;-78
2023/09/06 10:38:52;;;;;;;1.60;0.90;;;24.80;66.90;;;;;;5077019;28;20049;-79
2023/09/06 10:41:21;;;;;;;2.17;1.10;;;24.90;67.20;;;;;;5056817;28;20139;-78
2023/09/06 10:44:03;;;;;;;2.15;1.00;;;24.90;66.40;;;;;;5078758;28;20071;-79
2023/09/06 10:46:31;;;;;;;;;;;25.10;68.20;;;;;;5050256;28;20965;-79
2023/09/06 10:49:15;;;;;;;2.53;0.95;;;25.00;66.50;;;;;;5058402;28;20001;-78
2023/09/06 10:52:08;;;;;;;1.88;0.75;;;25.10;67.60;;;;;;5058348;28;20036;-79
2023/09/06 10:54:44;;;;;;;3.95;1.13;;;25.00;67.20;;;;;;5078122;28;20036;-79
2023/09/06 10:57:14;;;;;;;2.28;0.82;;;24.90;66.70;;;;;;5059985;28;20047;-80
2023/09/06 10:59:44;;;;;;;2.30;0.90;;;25.20;67.90;;;;;;5049820;28;20048;-79
2023/09/06 11:02:26;;;;;;;2.13;0.90;;;25.20;67.70;;;;;;5065256;28;20041;-79
2023/09/06 11:05:09;;;;;;;1.77;1.08;;;25.20;66.20;;;;;;5062026;28;20099;-79
2023/09/06 11:07:41;;;;;;;2.17;0.68;;;25.10;65.50;;;;;;5040581;28;20063;-79
2023/09/06 11:10:23;;;;;;;1.83;0.93;;;25.00;64.00;;;;;;5052079;28;20047;-79
2023/09/06 11:12:54;;;;;;;2.08;1.30;;;25.00;63.40;;;;;;5068904;28;20048;-80
2023/09/06 11:15:24;;;;;;;3.17;1.58;;;25.00;65.00;;;;;;5057253;28;20044;-80
2023/09/06 11:17:58;;;;;;;2.42;1.10;;;25.00;65.80;;;;;;5045272;28;21113;-79
2023/09/06 11:20:26;;;;;;;4.55;0.90;;;25.00;65.20;;;;;;5049297;28;20076;-80
2023/09/06 11:22:56;;;;;;;2.88;1.25;;;25.10;65.50;;;;;;5078113;28;20049;-80
2023/09/06 11:25:26;;;;;;;1.45;1.00;;;25.10;64.50;;;;;;5048999;28;20049;-77
2023/09/06 11:27:55;;;;;;;1.83;1.00;;;25.10;64.70;;;;;;5056029;28;20036;-80
2023/09/06 11:30:23;;;;;;;1.88;0.90;;;25.20;64.80;;;;;;5063504;28;20058;-79
2023/09/06 11:32:52;;;;;;;2.15;0.68;;;25.30;63.80;;;;;;5049241;28;20153;-80
2023/09/06 11:35:22;;;;;;;2.13;1.30;;;25.20;63.10;;;;;;5050714;28;20051;-77
2023/09/06 11:37:52;;;;;;;2.25;0.95;;;25.20;63.90;;;;;;5045992;28;20048;-79
2023/09/06 11:40:20;;;;;;;1.77;1.10;;;25.20;64.80;;;;;;5076533;28;20040;-80
2023/09/06 11:43:02;;;;;;;2.45;1.10;;;25.20;65.40;;;;;;5065271;28;20036;-80
2023/09/06 11:45:32;;;;;;;2.88;1.50;;;25.20;64.10;;;;;;5069171;28;20053;-80
2023/09/06 11:48:04;;;;;;;3.15;0.90;;;25.30;64.50;;;;;;5065639;28;20060;-81
2023/09/06 11:50:34;;;;;;;3.10;1.10;;;25.30;64.60;;;;;;5066214;28;20491;-80
2023/09/06 11:53:04;;;;;;;1.73;0.95;;;25.30;65.20;;;;;;5049200;28;20135;-80
2023/09/06 11:55:37;;;;;;;1.75;0.90;;;25.40;64.80;;;;;;5060702;28;20087;-80
2023/09/06 11:58:14;;;;;;;2.80;1.33;;;25.40;62.30;;;;;;5052264;28;20047;-80
2023/09/06 12:00:45;;;;;;;5.80;1.30;;;25.20;62.00;;;;;;5047687;28;20048;-80
2023/09/06 12:03:14;;;;;;;2.30;1.15;;;25.20;62.40;;;;;;5064813;28;20060;-80
2023/09/06 12:05:46;;;;;;;1.70;0.82;;;25.30;63.00;;;;;;5049493;28;20063;-79
2023/09/06 12:08:20;;;;;;;2.67;1.05;;;25.40;62.60;;;;;;5045818;28;20048;-79
2023/09/06 12:10:54;;;;;;;2.47;1.23;;;25.40;61.80;;;;;;5055880;28;20060;-80
2023/09/06 12:13:29;;;;;;;2.22;1.13;;;25.40;63.60;;;;;;5063252;28;20055;-78
2023/09/06 12:15:57;;;;;;;1.73;0.80;;;25.40;61.90;;;;;;5068693;28;20113;-79
2023/09/06 12:18:25;;;;;;;1.73;0.82;;;25.50;63.30;;;;;;5068238;28;20048;-80
2023/09/06 12:20:52;;;;;;;2.45;0.90;;;25.60;62.90;;;;;;5067120;28;20048;-78
2023/09/06 12:23:20;;;;;;;4.72;1.65;;;25.60;64.20;;;;;;5058586;28;20090;-79
2023/09/06 12:25:48;;;;;;;1.85;0.90;;;25.60;63.20;;;;;;5059977;28;20503;-80
2023/09/06 12:28:15;;;;;;;2.28;0.98;;;25.40;61.70;;;;;;5050638;28;20097;-80
2023/09/06 12:30:42;;;;;;;2.05;1.08;;;25.50;64.10;;;;;;5061925;28;20048;-79
2023/09/06 12:33:10;;;;;;;2.50;1.15;;;25.50;64.60;;;;;;5052038;28;20070;-80
2023/09/06 12:35:38;;;;;;;2.45;0.85;;;25.60;65.30;;;;;;5053424;28;20090;-79
2023/09/06 12:38:06;;;;;;;2.70;1.17;;;25.50;66.00;;;;;;5067649;28;20056;-79
2023/09/06 12:40:34;;;;;;;1.30;0.77;;;25.60;62.30;;;;;;5067211;28;20038;-78
2023/09/06 12:43:01;;;;;;;2.20;0.90;;;25.70;62.70;;;;;;5064986;28;20048;-79
2023/09/06 12:45:32;;;;;;;1.95;0.75;;;25.60;60.80;;;;;;5065340;28;20032;-79
2023/09/06 12:48:00;;;;;;;2.25;1.27;;;25.70;63.30;;;;;;5046891;28;20135;-81
2023/09/06 12:50:28;;;;;;;2.70;0.90;;;25.70;62.90;;;;;;5064388;28;20053;-79
2023/09/06 12:52:57;;;;;;;4.38;1.88;;;25.80;61.60;;;;;;5051850;28;20427;-79
2023/09/06 12:55:24;;;;;;;1.90;1.02;;;25.70;59.10;;;;;;5056594;28;20048;-80
2023/09/06 12:57:51;;;;;;;4.15;1.10;;;25.70;61.20;;;;;;5043346;28;20131;-79
2023/09/06 13:00:18;;;;;;;1.70;1.20;;;25.70;60.50;;;;;;5064592;28;20052;-79